Time;durP1;ratioP1;P1;durP2;ratioP2;P2;SDS_P1;SDS_P2;PMS_P1;PMS_P2;Temp;Humidity;BMP_temperature;BMP_pressure;BME280_temperature;BME280_humidity;BME280_pressure;Samples;Min_cycle;Max_cycle;Signal;HPM_P1;HPM_P2
2021/06/11 00:00:53;;;;;;;10.13;7.53;;;20.70;71.90;;;19.93;65.20;100899.84;5067693;28;20044;-78
2021/06/11 00:03:31;;;;;;;12.10;7.60;;;20.70;71.70;;;19.91;65.24;100894.59;5070580;28;20041;-78
2021/06/11 00:06:09;;;;;;;13.40;7.40;;;20.70;72.00;;;19.91;65.54;100897.34;5071882;28;20056;-78
2021/06/11 00:08:49;;;;;;;11.23;7.30;;;20.70;72.30;;;19.90;65.88;100898.44;5071866;28;20047;-78
2021/06/11 00:11:21;;;;;;;11.43;7.25;;;20.70;72.80;;;19.84;66.19;100895.78;5071477;28;20040;-78
2021/06/11 00:13:59;;;;;;;13.65;7.55;;;20.60;73.00;;;19.82;66.56;100897.91;5071792;28;20044;-78
2021/06/11 00:16:37;;;;;;;13.27;6.85;;;20.60;73.20;;;19.81;66.66;100899.84;5071501;28;20392;-78
2021/06/11 00:19:15;;;;;;;11.15;7.28;;;20.60;73.30;;;19.79;66.72;100893.72;5071721;28;20044;-78
2021/06/11 00:21:53;;;;;;;14.05;6.45;;;20.60;73.60;;;19.77;66.77;100897.81;5071191;28;20048;-78
2021/06/11 00:24:36;;;;;;;11.05;7.15;;;20.50;73.80;;;19.72;67.11;100893.84;5071774;28;20051;-78
2021/06/11 00:27:11;;;;;;;15.45;7.38;;;20.50;73.90;;;19.72;67.27;100896.59;5071419;28;20044;-78
2021/06/11 00:29:49;;;;;;;10.27;6.90;;;20.50;74.10;;;19.71;67.35;100894.88;5063944;28;20358;-78
2021/06/11 00:32:27;;;;;;;10.82;6.60;;;20.40;74.10;;;19.69;67.64;100894.25;5071288;28;20037;-78
2021/06/11 00:35:06;;;;;;;13.18;6.35;;;20.40;74.50;;;19.67;67.69;100895.59;5070142;28;20067;-78
2021/06/11 00:37:44;;;;;;;11.98;6.97;;;20.40;74.60;;;19.64;67.77;100890.53;5071512;28;20074;-78
2021/06/11 00:40:36;;;;;;;10.40;6.78;;;20.40;74.90;;;19.60;68.14;100889.31;5070999;28;20041;-78
2021/06/11 00:43:13;;;;;;;10.75;6.53;;;20.30;75.00;;;19.58;68.03;100886.78;5071658;28;20049;-78
2021/06/11 00:45:52;;;;;;;11.70;6.78;;;20.30;75.10;;;19.54;68.14;100885.56;5071390;28;20048;-78
2021/06/11 00:48:27;;;;;;;10.95;6.82;;;20.30;75.10;;;19.53;68.11;100883.88;5071409;28;20045;-78
2021/06/11 00:51:03;;;;;;;9.52;6.50;;;20.20;75.10;;;19.50;68.23;100889.88;5071118;28;20185;-79
2021/06/11 00:53:41;;;;;;;9.23;5.85;;;20.20;75.30;;;19.49;68.60;100885.44;5071583;28;20489;-78
2021/06/11 00:56:17;;;;;;;13.05;6.30;;;20.30;75.70;;;19.44;68.74;100886.16;5071342;28;20047;-78
2021/06/11 00:58:52;;;;;;;9.20;6.05;;;20.20;75.60;;;19.38;69.14;100881.56;5071475;28;20048;-78
2021/06/11 01:01:24;;;;;;;9.63;6.63;;;20.20;75.70;;;19.36;69.26;100883.69;5070999;28;20105;-78
2021/06/11 01:04:02;;;;;;;9.15;6.03;;;20.20;75.80;;;19.33;69.35;100879.50;5070837;28;20041;-78
2021/06/11 01:06:41;;;;;;;12.63;6.45;;;20.10;76.00;;;19.29;69.42;100883.81;5070962;28;20048;-78
2021/06/11 01:09:14;;;;;;;11.70;6.22;;;20.10;76.10;;;19.27;69.71;100879.59;5070940;28;20070;-78
2021/06/11 01:12:05;;;;;;;10.20;6.57;;;20.00;76.30;;;19.23;69.89;100878.34;5070853;28;20040;-78
2021/06/11 01:14:47;;;;;;;12.02;6.50;;;20.00;76.40;;;19.21;69.84;100875.84;5070777;28;20118;-78
2021/06/11 01:17:24;;;;;;;10.05;5.82;;;20.00;76.70;;;19.20;70.05;100878.84;5070923;28;20059;-78
2021/06/11 01:20:00;;;;;;;10.63;7.18;;;20.00;76.90;;;19.12;70.27;100883.59;5070395;28;20420;-78
2021/06/11 01:22:59;;;;;;;10.98;7.10;;;19.90;77.10;;;19.07;70.64;100883.44;5070968;28;20036;-78
2021/06/11 01:25:50;;;;;;;11.27;6.93;;;19.90;77.40;;;19.00;71.10;100882.72;5069616;28;20088;-77
2021/06/11 01:28:34;;;;;;;15.40;6.68;;;19.80;77.40;;;18.98;70.99;100882.06;5070985;28;20114;-78
2021/06/11 01:31:09;;;;;;;10.23;6.80;;;19.80;77.70;;;18.98;71.12;100878.47;5085827;28;20051;-78
2021/06/11 01:33:50;;;;;;;13.07;7.40;;;19.80;77.70;;;18.93;71.46;100880.03;5070685;28;20067;-78
2021/06/11 01:36:32;;;;;;;12.02;7.10;;;19.70;77.90;;;18.89;71.57;100872.44;5070532;28;20044;-78
2021/06/11 01:39:16;;;;;;;11.02;6.72;;;19.70;78.10;;;18.87;71.75;100871.84;5070522;28;20044;-78
2021/06/11 01:41:52;;;;;;;8.93;6.45;;;19.70;78.30;;;18.81;72.09;100873.59;5070357;28;20044;-78
2021/06/11 01:44:49;;;;;;;9.75;6.53;;;19.70;78.60;;;18.78;72.41;100870.44;5085007;22;20400;-77
2021/06/11 01:47:26;;;;;;;9.73;6.78;;;19.60;78.70;;;18.75;72.43;100878.09;5027088;28;20845;-77
2021/06/11 01:50:04;;;;;;;10.85;7.07;;;19.60;78.80;;;18.74;72.40;100870.88;5030127;28;20042;-77
2021/06/11 01:52:44;;;;;;;12.88;7.97;;;19.50;79.00;;;18.71;72.63;100871.34;5030242;28;20056;-77
2021/06/11 01:55:18;;;;;;;12.27;7.30;;;19.50;79.20;;;18.68;72.92;100868.22;5012299;28;20414;-77
2021/06/11 01:57:58;;;;;;;11.88;6.75;;;19.50;79.40;;;18.64;73.11;100873.34;5008936;28;20070;-77
2021/06/11 02:00:37;;;;;;;19.08;7.43;;;19.50;79.50;;;18.62;73.22;100869.97;5010358;28;20567;-77
2021/06/11 02:03:16;;;;;;;9.85;6.95;;;19.40;79.60;;;18.59;73.38;100873.19;5010245;28;20046;-78
2021/06/11 02:05:53;;;;;;;13.35;6.85;;;19.40;79.70;;;18.55;73.44;100877.47;5010319;28;20107;-77
2021/06/11 02:08:32;;;;;;;10.68;7.10;;;19.40;79.80;;;18.54;73.72;100870.25;5010298;28;20042;-77
2021/06/11 02:11:07;;;;;;;11.40;7.25;;;19.40;80.00;;;18.51;73.80;100870.72;5008523;28;20042;-77
2021/06/11 02:13:43;;;;;;;11.50;7.43;;;19.30;80.10;;;18.48;74.03;100871.19;5010170;28;20066;-78
2021/06/11 02:16:26;;;;;;;12.50;7.95;;;19.30;80.30;;;18.45;74.47;100877.13;5009608;28;20057;-77
2021/06/11 02:19:05;;;;;;;12.52;7.32;;;19.30;80.50;;;18.42;74.29;100872.09;5010175;28;20070;-77
2021/06/11 02:21:44;;;;;;;12.00;7.20;;;19.20;80.40;;;18.39;74.48;100878.06;5009345;28;20061;-77
2021/06/11 02:24:22;;;;;;;11.63;7.38;;;19.20;80.50;;;18.37;74.50;100870.00;5009747;28;20044;-77
2021/06/11 02:27:01;;;;;;;8.85;6.75;;;19.20;80.70;;;18.34;74.60;100870.47;5008639;28;20061;-77
2021/06/11 02:29:39;;;;;;;11.23;7.30;;;19.10;81.00;;;18.32;74.74;100867.13;5009527;28;20073;-77
2021/06/11 02:32:34;;;;;;;13.20;7.28;;;19.10;81.10;;;18.28;74.54;100872.22;5009499;28;20045;-77
2021/06/11 02:35:13;;;;;;;12.07;8.18;;;19.10;81.00;;;18.27;74.80;100872.47;5009764;28;20468;-77
2021/06/11 02:37:48;;;;;;;11.13;7.53;;;19.00;81.00;;;18.23;74.77;100866.56;5009589;28;20045;-77
2021/06/11 02:40:24;;;;;;;11.73;7.38;;;19.00;81.10;;;18.19;75.04;100864.50;5009561;28;20387;-77
2021/06/11 02:43:05;;;;;;;10.35;7.55;;;19.00;81.20;;;18.14;75.25;100859.63;5009383;28;20478;-77
2021/06/11 02:45:50;;;;;;;12.07;7.18;;;19.00;81.40;;;18.14;75.40;100866.03;5008120;28;20053;-77
2021/06/11 02:48:36;;;;;;;13.48;7.75;;;18.90;81.50;;;18.11;75.32;100857.34;5009628;28;20041;-77
2021/06/11 02:51:15;;;;;;;9.50;7.32;;;18.90;81.60;;;18.08;75.40;100863.31;5009287;28;20042;-77
2021/06/11 02:53:50;;;;;;;10.80;7.80;;;18.90;81.70;;;18.06;75.43;100859.94;5009461;28;20518;-77
2021/06/11 02:56:36;;;;;;;12.70;7.70;;;18.90;81.80;;;18.05;75.42;100855.47;5007791;28;20042;-77
2021/06/11 02:59:20;;;;;;;12.68;7.68;;;18.80;81.80;;;18.02;75.32;100861.47;5009462;28;20495;-77
2021/06/11 03:01:58;;;;;;;11.88;7.50;;;18.80;81.80;;;18.01;75.41;100857.00;5008942;28;20069;-77
2021/06/11 03:04:39;;;;;;;11.95;7.90;;;18.80;81.90;;;17.97;75.65;100863.00;5009426;28;20459;-77
2021/06/11 03:07:22;;;;;;;13.98;8.43;;;18.70;82.00;;;17.93;75.61;100853.50;5009113;28;20227;-77
2021/06/11 03:10:02;;;;;;;13.38;7.20;;;18.70;82.10;;;17.90;75.89;100851.19;5006094;28;20117;-77
2021/06/11 03:12:42;;;;;;;10.82;7.75;;;18.70;82.20;;;17.88;76.02;100856.06;5009114;28;20049;-77
2021/06/11 03:15:21;;;;;;;11.32;7.47;;;18.70;82.40;;;17.89;75.91;100851.41;5009283;28;20101;-77
2021/06/11 03:18:04;;;;;;;11.68;7.05;;;18.70;82.40;;;17.86;75.90;100860.97;5009076;28;20042;-77
2021/06/11 03:20:44;;;;;;;10.48;7.40;;;18.60;82.30;;;17.86;76.22;100849.94;5008968;28;20053;-77
2021/06/11 03:23:29;;;;;;;10.40;7.70;;;18.60;82.40;;;17.85;76.07;100851.00;5007465;28;20541;-77
2021/06/11 03:26:10;;;;;;;12.25;8.23;;;18.60;82.50;;;17.82;76.19;100839.56;5009164;28;20053;-77
2021/06/11 03:28:54;;;;;;;10.40;8.18;;;18.60;82.60;;;17.81;76.23;100846.97;5008951;28;20109;-77
2021/06/11 03:31:34;;;;;;;14.48;8.50;;;18.60;82.70;;;17.83;76.21;100853.09;5008722;28;20049;-77
2021/06/11 03:34:20;;;;;;;11.85;7.47;;;18.50;83.00;;;17.79;76.19;100847.19;5008961;28;20703;-77
2021/06/11 03:37:18;;;;;;;12.38;8.18;;;18.50;83.00;;;17.80;76.34;100859.09;5010612;28;20054;-77
2021/06/11 03:40:00;;;;;;;8.95;6.95;;;18.50;83.00;;;17.77;76.37;100845.75;5011446;28;20094;-77
2021/06/11 03:42:38;;;;;;;12.45;7.47;;;18.50;83.10;;;17.75;76.33;100856.16;5012325;28;20418;-77
2021/06/11 03:45:18;;;;;;;13.63;7.85;;;18.50;83.10;;;17.76;76.14;100857.81;5011148;28;20474;-77
2021/06/11 03:47:53;;;;;;;14.30;7.75;;;18.40;83.00;;;17.76;76.50;100860.56;5012814;28;20056;-77
2021/06/11 03:50:32;;;;;;;14.57;8.38;;;18.40;83.20;;;17.77;76.95;100854.00;5012610;28;20057;-77
2021/06/11 03:53:17;;;;;;;10.23;7.40;;;18.40;83.40;;;17.76;76.65;100864.19;5011453;28;20042;-77
2021/06/11 03:55:55;;;;;;;13.68;8.38;;;18.50;83.60;;;17.76;76.78;100866.06;5012694;28;20044;-77
2021/06/11 03:58:40;;;;;;;13.48;7.65;;;18.40;83.60;;;17.73;77.26;100866.53;5012573;28;20443;-77
2021/06/11 04:01:18;;;;;;;10.95;8.18;;;18.40;83.60;;;17.72;77.43;100868.44;5012415;28;20049;-76
2021/06/11 04:03:53;;;;;;;11.57;7.75;;;18.50;83.80;;;17.74;77.64;100863.56;5012554;28;20042;-77
2021/06/11 04:06:37;;;;;;;14.38;8.18;;;18.50;84.00;;;17.73;77.79;100864.63;5012430;28;20494;-77
2021/06/11 04:09:25;;;;;;;10.75;8.18;;;18.50;84.20;;;17.75;77.98;100861.66;5012336;28;20052;-77
2021/06/11 04:12:09;;;;;;;12.43;8.00;;;18.50;84.40;;;17.74;78.31;100859.94;5012443;28;20501;-77
2021/06/11 04:14:50;;;;;;;11.35;7.60;;;18.50;84.50;;;17.77;78.34;100854.00;5012086;28;20046;-77
2021/06/11 04:17:33;;;;;;;10.23;7.43;;;18.50;84.70;;;17.78;78.35;100853.78;5012225;28;20123;-77
2021/06/11 04:20:15;;;;;;;12.23;8.38;;;18.50;84.80;;;17.81;78.54;100857.16;5011784;28;20045;-78
2021/06/11 04:22:56;;;;;;;12.07;8.18;;;18.50;84.90;;;17.83;78.60;100853.09;5012338;28;20042;-77
2021/06/11 04:25:40;;;;;;;12.45;8.05;;;18.60;85.00;;;17.84;78.80;100864.94;5012277;28;20050;-77
2021/06/11 04:28:16;;;;;;;10.75;8.02;;;18.60;85.10;;;17.87;78.91;100859.03;5012166;28;20069;-77
2021/06/11 04:30:53;;;;;;;14.75;8.75;;;18.60;85.20;;;17.95;78.96;100856.88;5011710;28;20100;-77
2021/06/11 04:33:31;;;;;;;15.25;9.02;;;18.60;85.30;;;18.01;79.35;100859.75;5011752;28;20038;-77
2021/06/11 04:36:17;;;;;;;13.68;8.40;;;18.70;85.60;;;18.07;79.30;100858.88;5011507;28;20049;-77
2021/06/11 04:39:07;;;;;;;11.18;8.23;;;18.80;85.60;;;18.13;79.23;100858.81;5011781;28;20081;-77
2021/06/11 04:41:56;;;;;;;13.70;8.50;;;18.80;85.60;;;18.17;79.53;100864.72;5011173;28;20099;-77
2021/06/11 04:44:34;;;;;;;13.40;9.15;;;18.90;85.60;;;18.23;79.60;100861.03;5011572;28;20700;-78
2021/06/11 04:47:10;;;;;;;13.23;8.77;;;19.00;85.60;;;18.26;79.68;100863.34;5009842;28;20076;-77
2021/06/11 04:49:48;;;;;;;12.13;8.88;;;19.00;85.60;;;18.33;79.52;100857.75;5010600;28;20046;-77
2021/06/11 04:52:26;;;;;;;14.48;9.93;;;19.10;85.50;;;18.38;79.53;100855.19;5011352;28;20505;-77
2021/06/11 04:55:04;;;;;;;15.32;10.13;;;19.10;85.40;;;18.45;79.43;100863.34;5011365;28;20073;-77
2021/06/11 04:57:44;;;;;;;15.45;10.32;;;19.20;85.20;;;18.51;78.98;100855.03;5010384;28;20046;-77
2021/06/11 05:00:23;;;;;;;16.67;10.20;;;19.30;85.10;;;18.56;79.29;100852.44;5010586;28;20092;-77
2021/06/11 05:03:02;;;;;;;14.95;9.95;;;19.40;85.00;;;18.62;79.73;100849.81;5010032;28;20034;-77
2021/06/11 05:05:40;;;;;;;15.45;10.40;;;19.40;84.70;;;18.67;78.93;100853.56;5009125;28;20046;-77
2021/06/11 05:08:19;;;;;;;15.18;10.50;;;19.50;84.60;;;18.74;78.92;100843.31;5009578;28;20050;-76
2021/06/11 05:10:57;;;;;;;14.88;10.70;;;19.60;84.20;;;18.80;78.71;100843.47;5009974;28;20046;-76
2021/06/11 05:13:37;;;;;;;20.25;11.30;;;19.60;84.10;;;18.85;78.68;100838.97;5008987;28;20046;-77
2021/06/11 05:16:15;;;;;;;18.15;11.70;;;19.70;84.10;;;18.91;78.97;100838.03;5010554;28;20067;-78
2021/06/11 05:18:53;;;;;;;16.10;10.07;;;19.80;84.20;;;18.98;79.36;100840.69;5010473;28;20674;-77
2021/06/11 05:21:31;;;;;;;16.40;11.13;;;19.90;84.70;;;19.02;79.14;100833.66;5009787;28;20038;-76
2021/06/11 05:24:09;;;;;;;18.92;10.85;;;20.00;83.90;;;19.07;79.13;100841.22;5010532;28;20046;-77
2021/06/11 05:26:47;;;;;;;16.52;11.10;;;20.00;83.60;;;19.10;79.46;100841.63;5007745;28;20049;-77
2021/06/11 05:29:30;;;;;;;16.42;11.05;;;20.10;84.00;;;19.13;79.23;100846.69;5010430;28;20049;-77
2021/06/11 05:32:05;;;;;;;18.00;11.10;;;20.20;83.50;;;19.17;79.13;100847.03;5010639;28;20074;-77
2021/06/11 05:34:43;;;;;;;14.52;10.63;;;20.20;83.80;;;19.22;79.53;100854.63;5010480;28;20846;-77
2021/06/11 05:37:18;;;;;;;16.80;10.57;;;20.20;83.70;;;19.27;79.54;100852.00;5009183;28;20104;-77
2021/06/11 05:39:59;;;;;;;14.20;10.40;;;20.30;84.10;;;19.31;79.61;100847.69;5009643;28;20080;-77
2021/06/11 05:42:31;;;;;;;19.40;11.52;;;20.30;84.40;;;19.36;80.07;100853.34;5010606;28;20080;-77
2021/06/11 05:45:23;;;;;;;17.63;10.52;;;20.50;84.60;;;19.42;79.79;100855.19;5010286;28;20046;-77
2021/06/11 05:48:01;;;;;;;16.20;11.00;;;20.50;84.60;;;19.49;79.96;100850.38;5010428;28;20048;-78
2021/06/11 05:50:34;;;;;;;20.42;11.52;;;20.60;84.20;;;19.63;79.85;100851.03;5009924;28;20053;-77
2021/06/11 05:53:12;;;;;;;17.70;11.88;;;21.00;83.70;;;19.80;80.14;100851.22;5010293;28;20081;-77
2021/06/11 05:55:50;;;;;;;17.85;11.73;;;21.60;81.60;;;20.01;79.50;100847.03;5009303;28;20045;-77
2021/06/11 05:58:28;;;;;;;18.55;11.43;;;22.40;78.20;;;20.26;78.46;100840.44;5010205;28;20064;-77
2021/06/11 06:01:03;;;;;;;19.90;12.35;;;23.20;75.00;;;20.53;77.80;100846.28;5008763;28;20046;-78
2021/06/11 06:03:39;;;;;;;16.92;11.25;;;24.00;72.60;;;20.79;77.31;100857.91;5010032;28;20038;-78
2021/06/11 06:06:17;;;;;;;21.23;12.25;;;24.70;70.30;;;21.05;76.25;100857.38;5010061;28;20407;-78
2021/06/11 06:08:52;;;;;;;19.98;13.07;;;25.40;67.00;;;21.28;74.87;100855.59;5008792;28;20058;-78
2021/06/11 06:11:30;;;;;;;20.00;11.95;;;26.10;64.20;;;21.52;74.11;100861.06;5009691;28;20053;-78
2021/06/11 06:14:05;;;;;;;18.23;12.77;;;26.70;61.80;;;21.73;72.94;100857.56;5009746;28;20054;-78
2021/06/11 06:16:42;;;;;;;18.02;12.27;;;27.20;59.60;;;21.93;71.90;100856.22;5009946;28;20049;-78
2021/06/11 06:19:20;;;;;;;17.25;11.13;;;27.60;58.00;;;22.12;71.74;100863.16;5009434;28;20069;-78
2021/06/11 06:21:58;;;;;;;23.23;12.38;;;28.00;57.70;;;22.35;70.96;100866.88;5009620;28;20053;-78
2021/06/11 06:24:36;;;;;;;19.30;12.20;;;28.30;56.30;;;22.49;70.19;100870.97;5009450;28;20112;-78
2021/06/11 06:27:15;;;;;;;19.40;11.73;;;28.50;54.90;;;22.59;69.96;100868.34;5008362;28;20058;-78
2021/06/11 06:29:47;;;;;;;23.92;12.02;;;28.50;54.70;;;22.66;70.41;100870.94;5009147;28;20050;-76
2021/06/11 06:32:29;;;;;;;18.33;11.38;;;28.50;54.70;;;22.71;70.39;100875.72;5009517;28;20050;-76
2021/06/11 06:35:04;;;;;;;19.30;12.68;;;28.60;54.40;;;22.72;69.11;100874.63;5008200;28;20168;-76
2021/06/11 06:37:40;;;;;;;19.58;12.70;;;27.90;55.00;;;22.69;69.50;100880.69;5009524;28;20050;-76
2021/06/11 06:40:16;;;;;;;22.17;12.48;;;27.00;59.40;;;22.61;69.35;100873.63;5009145;28;20049;-75
2021/06/11 06:42:54;;;;;;;22.55;12.80;;;26.30;61.50;;;22.55;68.94;100872.72;5009456;28;20046;-76
2021/06/11 06:45:29;;;;;;;21.85;12.32;;;25.80;62.90;;;22.46;70.19;100879.81;5009314;28;20038;-75
2021/06/11 06:48:10;;;;;;;23.25;11.95;;;25.40;65.00;;;22.38;70.22;100880.25;5009507;28;20053;-77
2021/06/11 06:50:48;;;;;;;26.20;14.63;;;25.10;66.00;;;22.33;69.28;100880.16;5009174;28;20105;-78
2021/06/11 06:53:24;;;;;;;26.75;15.05;;;24.90;66.70;;;22.29;70.14;100876.22;5009307;28;20042;-77
2021/06/11 06:55:59;;;;;;;34.75;16.30;;;24.70;68.00;;;22.23;70.42;100881.66;5009066;28;20038;-77
2021/06/11 06:58:32;;;;;;;29.55;14.77;;;24.60;68.30;;;22.19;71.30;100874.94;5009088;28;20383;-77
2021/06/11 07:01:07;;;;;;;34.80;15.93;;;24.40;69.50;;;22.17;72.13;100873.53;5008843;28;20080;-77
2021/06/11 07:03:43;;;;;;;30.90;16.08;;;24.40;70.60;;;22.13;72.55;100870.41;5008915;28;20044;-77
2021/06/11 07:06:21;;;;;;;28.67;15.60;;;24.30;70.80;;;22.14;72.33;100874.00;5008996;28;20050;-77
2021/06/11 07:09:00;;;;;;;30.83;14.85;;;24.30;71.30;;;22.13;71.02;100870.41;5008892;28;20045;-77
2021/06/11 07:11:35;;;;;;;31.33;14.30;;;24.20;70.00;;;22.10;71.65;100862.59;5021305;28;20469;-77
2021/06/11 07:14:13;;;;;;;28.33;13.90;;;24.20;71.00;;;22.09;71.83;100860.09;4989246;28;20050;-77
2021/06/11 07:16:51;;;;;;;25.75;14.27;;;24.20;71.10;;;22.06;72.17;100864.19;4989402;28;20149;-77
2021/06/11 07:19:25;;;;;;;25.67;12.55;;;24.10;71.40;;;22.09;72.86;100871.19;4989118;28;20061;-77
2021/06/11 07:22:29;;;;;;;25.13;13.18;;;24.10;71.70;;;22.07;72.07;100868.66;5139048;27;20616;-77
2021/06/11 07:25:06;;;;;;;26.13;12.02;;;24.10;71.80;;;22.07;72.16;100868.66;5093050;28;20044;-77
2021/06/11 07:27:44;;;;;;;23.17;12.05;;;24.10;71.60;;;22.08;72.36;100872.25;5106492;28;20050;-76
2021/06/11 07:30:23;;;;;;;23.77;12.43;;;24.10;71.90;;;22.10;72.17;100873.69;5105824;28;20125;-76
2021/06/11 07:33:02;;;;;;;23.83;11.00;;;24.00;71.90;;;22.05;71.74;100879.16;5105828;28;20044;-77
2021/06/11 07:35:40;;;;;;;22.42;10.60;;;24.00;71.30;;;22.08;72.27;100873.09;5106257;28;20055;-76
2021/06/11 07:38:17;;;;;;;22.42;11.32;;;24.00;72.00;;;22.09;72.79;100868.41;5106154;28;20044;-77
2021/06/11 07:40:55;;;;;;;25.00;12.27;;;24.00;72.50;;;22.12;72.22;100870.66;5105660;28;20055;-77
2021/06/11 07:43:33;;;;;;;26.50;12.20;;;24.00;71.80;;;22.12;71.71;100873.44;5105847;28;20097;-77
2021/06/11 07:46:08;;;;;;;22.00;9.95;;;24.00;71.80;;;22.14;72.22;100876.78;5087969;22;20061;-75
2021/06/11 07:48:44;;;;;;;17.40;9.48;;;24.00;72.30;;;22.16;72.86;100878.22;5045220;28;20060;-75
2021/06/11 07:51:24;;;;;;;20.42;11.35;;;24.00;73.00;;;22.19;72.52;100869.38;5045152;28;20045;-75
2021/06/11 07:54:03;;;;;;;17.23;9.75;;;24.00;72.80;;;22.20;73.28;100873.84;5045266;28;20049;-75
2021/06/11 07:56:39;;;;;;;19.67;10.50;;;24.10;72.80;;;22.22;73.59;100877.22;5029648;28;20053;-75
2021/06/11 07:59:15;;;;;;;18.08;10.88;;;24.10;72.80;;;22.22;72.70;100877.22;5025440;28;20053;-75
2021/06/11 08:01:54;;;;;;;20.98;11.52;;;24.10;72.70;;;22.28;73.44;100885.66;5023872;28;20056;-75
2021/06/11 08:04:31;;;;;;;24.58;11.38;;;24.10;72.90;;;22.33;74.87;100888.47;5025294;28;20095;-75
2021/06/11 08:07:07;;;;;;;22.27;11.25;;;24.10;74.00;;;22.38;74.52;100894.13;5028027;28;20049;-75
2021/06/11 08:10:07;;;;;;;21.15;10.55;;;24.20;74.20;;;22.43;74.18;100888.66;5024966;28;20056;-75
2021/06/11 08:12:42;;;;;;;20.02;10.10;;;24.20;73.80;;;22.50;74.01;100892.06;5025290;28;20046;-76
2021/06/11 08:15:21;;;;;;;18.65;9.38;;;24.30;73.80;;;22.49;73.79;100892.34;5025033;28;20764;-75
2021/06/11 08:17:59;;;;;;;16.38;8.18;;;24.40;73.40;;;22.50;71.54;100900.38;5025076;28;20042;-76
2021/06/11 08:20:35;;;;;;;14.43;7.75;;;24.30;71.60;;;22.44;71.71;100899.47;5023323;28;20422;-75
2021/06/11 08:23:13;;;;;;;13.07;8.23;;;24.30;71.80;;;22.53;69.44;100899.88;5024934;28;20045;-76
2021/06/11 08:25:52;;;;;;;18.60;7.97;;;24.30;69.50;;;22.56;69.72;100892.97;5024967;28;20045;-75
2021/06/11 08:28:27;;;;;;;13.48;8.43;;;24.40;70.50;;;22.56;68.67;100899.38;5025029;28;20045;-75
2021/06/11 08:31:03;;;;;;;13.35;7.82;;;24.40;69.20;;;22.53;68.87;100908.22;5023260;28;20046;-75
2021/06/11 08:33:42;;;;;;;14.65;7.38;;;24.40;69.40;;;22.51;69.11;100904.84;5009821;28;20688;-75
2021/06/11 08:36:20;;;;;;;13.80;9.05;;;24.40;69.70;;;22.48;67.24;100912.84;5011694;28;20102;-75
2021/06/11 08:38:58;;;;;;;15.07;8.27;;;24.30;67.80;;;22.53;69.35;100908.22;5011431;28;20046;-75
2021/06/11 08:41:37;;;;;;;13.25;7.72;;;24.40;69.90;;;22.60;70.49;100913.59;5011310;28;20053;-75
2021/06/11 08:44:15;;;;;;;17.45;8.90;;;24.40;70.70;;;22.62;68.73;100912.22;5011417;28;20046;-75
2021/06/11 08:46:53;;;;;;;13.43;9.40;;;24.40;69.60;;;22.65;68.03;100908.09;5011267;28;20701;-75
2021/06/11 08:49:33;;;;;;;14.02;7.72;;;24.40;69.00;;;22.69;70.16;100909.25;5010844;28;20052;-75
2021/06/11 08:52:12;;;;;;;15.23;9.27;;;24.40;71.10;;;22.63;68.70;100911.13;5011204;28;20768;-75
2021/06/11 08:54:50;;;;;;;19.25;9.40;;;24.50;69.30;;;22.55;68.03;100908.78;5020434;28;20068;-75
2021/06/11 08:57:27;;;;;;;13.43;8.25;;;24.40;68.90;;;22.53;69.31;100916.53;5030857;28;20057;-75
2021/06/11 08:59:59;;;;;;;14.05;8.73;;;24.40;69.70;;;22.52;69.48;100920.38;5030364;28;20042;-75
2021/06/11 09:02:37;;;;;;;19.20;10.00;;;24.30;69.30;;;22.58;71.86;100919.38;5030733;28;20544;-75
2021/06/11 09:05:21;;;;;;;12.02;8.05;;;24.40;71.70;;;22.59;69.65;100918.28;5030768;28;20046;-75
2021/06/11 09:08:13;;;;;;;18.25;9.18;;;24.40;70.10;;;22.60;69.62;100922.75;5030677;28;20057;-75
2021/06/11 09:10:52;;;;;;;15.27;9.25;;;24.40;69.90;;;22.65;71.03;100936.66;5030352;28;20414;-75
2021/06/11 09:13:37;;;;;;;15.98;8.90;;;24.40;71.30;;;22.69;71.02;100919.53;5030533;28;20045;-75
2021/06/11 09:16:20;;;;;;;15.25;9.68;;;24.50;71.70;;;22.71;68.69;100922.88;5023591;28;20069;-75
2021/06/11 09:19:02;;;;;;;15.73;8.65;;;24.50;70.10;;;22.78;69.60;100912.44;5010509;28;20442;-75
2021/06/11 09:21:43;;;;;;;14.35;8.65;;;24.60;70.80;;;22.77;70.22;100924.63;5010359;28;20038;-75
2021/06/11 09:24:24;;;;;;;12.15;7.90;;;24.60;71.10;;;22.71;68.20;100922.88;5010449;28;20046;-75
2021/06/11 09:27:23;;;;;;;11.93;7.78;;;24.60;69.10;;;22.67;68.04;100916.16;5010462;28;20174;-75
2021/06/11 09:30:15;;;;;;;16.23;9.85;;;24.50;69.00;;;22.75;69.51;100912.94;4995135;28;20565;-75
2021/06/11 09:33:01;;;;;;;12.75;9.38;;;24.60;70.80;;;22.79;68.11;100916.88;5010391;28;20053;-75
2021/06/11 09:35:41;;;;;;;18.23;10.27;;;24.60;68.90;;;22.77;68.53;100907.97;5010181;28;20049;-75
2021/06/11 09:38:21;;;;;;;15.85;9.10;;;24.60;69.90;;;22.73;69.61;100913.22;5010366;28;20053;-75
2021/06/11 09:41:12;;;;;;;13.15;9.35;;;24.60;69.80;;;22.75;69.21;100912.94;5025634;28;20065;-75
2021/06/11 09:44:05;;;;;;;18.50;10.63;;;24.50;69.80;;;22.81;68.45;100915.56;5028546;28;20219;-75
2021/06/11 09:46:52;;;;;;;17.63;11.55;;;24.60;69.30;;;22.73;67.07;100915.13;5029548;28;20045;-75
2021/06/11 09:49:29;;;;;;;17.23;9.98;;;24.50;68.30;;;22.70;68.33;100915.66;5028699;28;20045;-76
2021/06/11 09:52:14;;;;;;;15.02;9.38;;;24.50;69.50;;;22.71;69.16;100911.78;5029610;28;20045;-75
2021/06/11 09:54:53;;;;;;;14.23;9.38;;;24.50;70.30;;;22.69;70.37;100905.66;5028214;28;20060;-75
2021/06/11 09:57:33;;;;;;;17.15;10.60;;;24.50;70.60;;;22.78;69.64;100895.78;5029612;28;20056;-75
2021/06/11 10:00:12;;;;;;;18.63;10.65;;;24.60;70.80;;;22.79;68.60;100905.78;5029429;28;20053;-75
2021/06/11 10:02:55;;;;;;;15.40;10.38;;;24.60;69.40;;;22.72;68.15;100905.16;5029549;28;20103;-75
2021/06/11 10:05:31;;;;;;;17.13;10.10;;;24.50;69.00;;;22.68;70.03;100902.03;5029464;28;20099;-75
2021/06/11 10:08:09;;;;;;;15.55;9.18;;;24.50;70.60;;;22.67;69.57;100905.06;5029322;28;20045;-75
2021/06/11 10:10:49;;;;;;;15.88;10.73;;;24.50;70.10;;;22.68;68.83;100896.50;5029268;28;20050;-75
2021/06/11 10:13:28;;;;;;;12.15;8.75;;;24.50;69.70;;;22.65;69.18;100900.59;5028153;28;20053;-75
2021/06/11 10:16:10;;;;;;;12.70;9.13;;;24.50;70.10;;;22.67;69.35;100899.53;5029414;28;20049;-75
2021/06/11 10:18:48;;;;;;;15.45;9.65;;;24.40;70.20;;;22.73;69.30;100901.25;5029405;28;20532;-75
2021/06/11 10:21:28;;;;;;;15.73;9.73;;;24.50;70.20;;;22.76;69.81;100903.53;5028964;28;20099;-75
2021/06/11 10:24:02;;;;;;;16.25;10.02;;;24.50;70.80;;;22.88;73.44;100895.91;5029265;28;20045;-75
2021/06/11 10:26:41;;;;;;;13.65;9.65;;;24.60;74.00;;;22.94;72.00;100894.06;5028192;28;20053;-77
2021/06/11 10:29:23;;;;;;;16.40;9.43;;;24.70;71.50;;;22.93;69.14;100890.44;5026336;28;20050;-76
2021/06/11 10:32:04;;;;;;;13.57;8.32;;;24.70;70.30;;;22.89;67.07;100897.63;5029116;28;20049;-76
2021/06/11 10:34:59;;;;;;;19.42;8.18;;;24.60;68.20;;;22.81;67.51;100895.28;5027700;28;20595;-76
2021/06/11 10:37:46;;;;;;;11.18;7.07;;;24.60;68.40;;;22.76;70.92;100884.13;5028813;28;20045;-77
2021/06/11 10:40:39;;;;;;;13.20;7.70;;;24.60;70.90;;;22.88;71.04;100884.81;5006090;28;20719;-76
2021/06/11 10:43:47;;;;;;;11.52;7.75;;;24.60;71.60;;;22.98;70.00;100875.78;5008993;28;20053;-76
2021/06/11 10:46:33;;;;;;;14.60;8.00;;;24.70;69.70;;;23.07;72.32;100881.75;4943419;29;20055;-76
2021/06/11 10:49:13;;;;;;;14.55;8.95;;;24.70;71.50;;;23.15;70.27;100878.50;4948063;29;20082;-76
2021/06/11 10:51:53;;;;;;;18.02;8.80;;;24.80;71.30;;;23.23;67.44;100878.91;5007021;28;20433;-76
2021/06/11 10:54:35;;;;;;;15.35;9.10;;;24.90;68.90;;;23.19;64.96;100871.38;5028420;28;20516;-76
2021/06/11 10:57:26;;;;;;;16.23;7.78;;;24.80;66.90;;;23.18;68.23;100872.44;5028804;28;20068;-76